EGLT weather

Ascot Racecourse Heliport
Ascot Heath, England, United Kingdom

Public forecast

Using degrees Celsius for public forecast. Weather courtesy of forecast.io.

METAR (pilot weather report)

Closest report is London Heathrow Airport, 7.8 nm (14.5 km) ENE. Retrieved 2018/04/20 10:20 UTC (2 minutes ago):

EGLL 201020Z AUTO VRB03KT 9999 NCD 22/14 Q1024 NOSIG

TAF (pilot weather forecast)

Closest forecast is London Heathrow Airport, 7.8 nm (14.5 km) ENE. Retrieved 2018/04/20 06:17 UTC (4 hours ago):

TAF EGLL 200453Z 2006/2112 31004KT CAVOK BECMG 2102/2105 08010KT 6000 BECMG 2107/2110 CAVOK